CST,Max TemperatureF,Mean TemperatureF,Min TemperatureF,Max Dew PointF,MeanDew PointF,Min DewpointF,Max Humidity, Mean Humidity, Min Humidity, Max Sea Level PressureIn, Mean Sea Level PressureIn, Min Sea Level PressureIn, Max VisibilityMiles, Mean VisibilityMiles, Min VisibilityMiles, Max Wind SpeedMPH, Mean Wind SpeedMPH, Max Gust SpeedMPH,PrecipitationIn, CloudCover, Events, WindDirDegrees
2013-12-1,46,34,22,28,25,20,91,71,46,30.16,30.04,29.84,10,10,7,10,6,,0.00,1,,40
2013-12-2,66,46,26,33,30,23,92,64,28,29.83,29.61,29.51,10,9,5,12,5,,0.03,0,,179
2013-12-3,45,38,32,34,32,28,88,79,63,29.69,29.58,29.49,10,8,5,21,8,26,0.00,2,,353
2013-12-4,35,26,18,32,18,8,93,80,64,30.08,29.78,29.66,10,8,2,25,18,32,0.00,7,,317
2013-12-5,18,13,8,9,1,-4,71,58,43,30.43,30.28,30.06,10,10,10,24,15,31,0.00,1,,320
2013-12-6,14,7,0,-4,-5,-6,75,61,42,30.69,30.55,30.42,10,10,10,18,12,21,0.00,0,,337
2013-12-7,13,5,-3,9,-3,-8,84,67,48,30.73,30.60,30.38,10,9,2,12,4,,0.00,2,Snow,40
2013-12-8,18,14,7,14,11,4,89,84,77,30.36,30.13,30.00,10,4,1,15,9,18,0.00,7,Snow,71
2013-12-9,18,8,-2,8,-2,-10,84,67,56,30.33,30.21,30.06,10,10,10,21,10,26,0.00,0,,254
2013-12-10,32,24,16,28,16,6,90,68,59,30.25,30.14,30.04,10,10,4,20,12,26,0.00,3,Snow,241
2013-12-11,29,15,1,24,4,-5,82,74,61,30.59,30.47,30.27,10,9,2,26,15,32,0.00,2,Snow,201
2013-12-12,33,22,11,24,14,3,91,75,62,30.42,30.25,30.06,10,10,10,15,7,18,0.00,0,,187
2013-12-13,33,22,12,26,19,10,93,84,72,30.09,29.97,29.88,10,8,0,18,5,21,0.00,2,Fog,28
2013-12-14,25,18,11,19,15,8,89,80,70,30.22,30.17,30.10,10,10,7,18,12,25,0.00,5,Snow,336
2013-12-15,30,21,12,24,17,10,93,85,75,30.15,30.02,29.95,10,8,4,9,4,,0.00,3,,100
2013-12-16,51,30,10,34,23,8,91,80,50,30.16,30.03,29.97,10,8,4,20,4,26,0.00,1,,329
2013-12-17,44,34,24,29,22,14,87,66,31,30.29,30.20,30.08,10,10,10,22,8,25,0.00,0,,269
2013-12-18,58,42,25,31,27,20,84,64,34,30.06,29.80,29.69,10,10,10,14,8,18,0.00,0,,192
2013-12-19,36,27,18,29,23,15,89,79,62,29.90,29.80,29.74,10,9,5,21,12,28,0.00,4,,7
2013-12-20,20,16,13,15,13,10,89,82,75,29.99,29.93,29.88,10,8,2,21,13,24,0.00,8,Snow,333
2013-12-21,26,22,17,21,17,14,87,79,64,29.88,29.83,29.78,10,10,7,18,4,24,0.00,3,,27
2013-12-22,24,17,10,21,10,3,89,71,53,30.39,30.13,29.88,10,10,5,22,16,28,0.00,3,Snow,337
2013-12-23,14,8,2,2,-4,-7,73,58,38,30.60,30.52,30.39,10,10,10,17,12,23,0.00,4,,335
2013-12-24,28,16,4,25,12,-5,93,78,60,30.50,30.25,30.09,10,9,3,24,11,32,0.00,7,Snow,171
2013-12-25,45,31,17,28,22,15,92,74,42,30.30,30.24,30.20,10,10,10,28,10,34,0.00,2,,284
2013-12-26,52,36,20,25,20,17,88,59,26,30.26,30.15,30.09,10,10,10,12,7,,0.00,0,,252
2013-12-27,64,41,18,28,21,14,86,54,19,30.26,30.15,30.06,10,10,10,24,6,30,0.00,0,,218
2013-12-28,63,40,17,31,24,8,81,58,20,30.16,29.92,29.72,10,10,10,37,12,46,0.00,2,,218
2013-12-29,16,10,3,6,-8,-16,71,46,24,30.40,30.30,30.16,10,10,10,31,15,40,0.00,2,,341
2013-12-30,41,22,4,27,6,-7,83,55,36,30.27,30.16,30.02,10,10,10,24,10,29,0.00,5,,200
2013-12-31,36,22,7,20,10,4,86,73,51,30.27,30.14,30.00,10,10,10,20,6,26,0.00,1,,77